Karl Stefan Memorial Airport
KOFK : now visible

Airfield :











YOU CAN JOIN US ON...

 
LOGIN :

Register | Disclaimer

   EN    FR    IT 

 









Legend :    VFR   Marginal VFR   IFR   Intensive IFR   Very Intensive IFR
Visi :
Ceiling :
>= 8 km
>= 3000ft
5 to 8 km
1000 to 3000 ft
1500m to 5 km
500 to 1000 ft
800 to 1500m
200 to 500 ft
< 800m
< 200 ft
Symbols :   Thunderstorms  Fog  Heavy snow  Heavy precipitations  Wind > 20 kt







- Airport Elevation : 1573 ft


KOFK - Karl Stefan Memorial

CURRENT METAR :
  • 221056Z AUTO 35015KT 10SM OVC008 10/08 A2986 RMK AO2 RAE52 SLP106 P0001 T01000083

EXPIRED METARs :
  • 221028Z AUTO 34018G22KT 10SM -RA OVC009 11/08 A2985 RMK AO2 P0001 T01060083
  • 220956Z AUTO 34015G24KT 10SM -RA OVC010 11/08 A2983 RMK AO2 RAE05B21 SLP095 P0000 T01060083
  • 220930Z AUTO 34010KT 10SM -RA BKN013 OVC095 11/08 A2982 RMK AO2 RAE05B21 P0000 T01110083
  • 220856Z AUTO 33014KT 10SM -RA OVC100 11/08 A2980 RMK AO2 SLP086 P0001 60001 T01110083 51047

TAF KOFK
Valid from the 22 at 12:00 until the 23 at 12:00 UTC


221138Z 2212/2312 34016G24KT P6SM VCSH OVC008
FM221600 34020G29KT P6SM OVC015
FM230000 35016G25KT P6SM BKN030
FM230100 35014KT P6SM BKN050
FM230200 36005KT P6SM SCT100
KZMP FIR / North America



MET'MAP, your aeronautical weather chart ! - Copyright ORBIFLY December 2007 - Disclaimer

ORBIFLY MET'MAP TEAM :

Programming & Development : Alexandra Zaïnal
Concept & Development : Baudouin d'Aumeries
Co-Development & Prog : Marc-Olivier Méhu
Technical & hardware support : Manuel Goepfert

Contact : metmap@orbifly.com




SOURCES & CREDITS :

   NOAA       Earth
Advisory